Time;durP1;ratioP1;P1;durP2;ratioP2;P2;SDS_P1;SDS_P2;PMS_P1;PMS_P2;Temp;Humidity;BMP_temperature;BMP_pressure;BME280_temperature;BME280_humidity;BME280_pressure;Samples;Min_cycle;Max_cycle;Signal;HPM_P1;HPM_P2
2022/02/05 00:00:35;;;;;;;13.63;3.78;;;;;;;;;;5033155;28;20088;-68
2022/02/05 00:06:00;;;;;;;18.58;3.22;;;;;;;;;;5032586;28;20145;-72
2022/02/05 00:41:00;;;;;;;12.18;2.30;;;;;;;;;;5017017;28;20034;-69
2022/02/05 00:43:30;;;;;;;19.67;3.92;;;;;;;;;;5010988;28;20041;-71
2022/02/05 00:45:58;;;;;;;14.85;3.70;;;;;;;;;;5016925;28;20120;-71
2022/02/05 00:48:25;;;;;;;18.83;2.88;;;;;;;;;;5016747;28;20042;-70
2022/02/05 00:51:08;;;;;;;21.35;2.42;;;;;;;;;;5016689;28;20323;-71
2022/02/05 00:53:38;;;;;;;16.33;2.75;;;;;;;;;;5016498;28;20049;-70
2022/02/05 00:56:13;;;;;;;15.63;3.17;;;;;;;;;;5016877;28;20042;-72
2022/02/05 00:58:41;;;;;;;14.93;3.10;;;;;;;;;;5016787;28;20128;-71
2022/02/05 01:01:09;;;;;;;17.90;3.17;;;;;;;;;;5016767;28;20045;-69
2022/02/05 01:03:38;;;;;;;20.38;3.08;;;;;;;;;;5016653;28;20049;-69
2022/02/05 01:06:06;;;;;;;20.42;3.63;;;;;;;;;;5017103;28;20052;-71
2022/02/05 01:08:34;;;;;;;19.80;2.58;;;;;;;;;;4999316;28;20050;-69
2022/02/05 01:11:05;;;;;;;23.45;3.50;;;;;;;;;;5016163;28;20049;-69
2022/02/05 01:13:34;;;;;;;13.63;3.75;;;;;;;;;;4998986;28;20072;-72
2022/02/05 01:16:19;;;;;;;15.80;3.35;;;;;;;;;;4999057;28;20043;-69
2022/02/05 01:18:48;;;;;;;12.05;2.72;;;;;;;;;;5016048;28;20124;-71
2022/02/05 01:24:01;;;;;;;15.35;3.15;;;;;;;;;;5016655;28;20508;-69
2022/02/05 01:26:37;;;;;;;13.95;2.60;;;;;;;;;;5015213;28;20045;-69
2022/02/05 01:32:06;;;;;;;16.35;2.63;;;;;;;;;;4946133;28;20047;-69
2022/02/05 01:34:40;;;;;;;16.73;3.13;;;;;;;;;;5015823;28;20042;-72
2022/02/05 02:12:00;;;;;;;9.43;2.15;;;;;;;;;;5015086;28;20041;-71
2022/02/05 02:22:47;;;;;;;12.98;2.63;;;;;;;;;;4991178;28;20052;-71
2022/02/05 02:25:37;;;;;;;12.77;2.92;;;;;;;;;;5015035;28;20073;-71
2022/02/05 02:28:14;;;;;;;6.53;2.20;;;;;;;;;;5014883;28;20048;-72
2022/02/05 02:30:53;;;;;;;12.93;2.50;;;;;;;;;;5014459;28;20052;-69
2022/02/05 02:33:30;;;;;;;9.60;2.28;;;;;;;;;;5015026;28;20052;-72
2022/02/05 02:35:58;;;;;;;8.77;2.13;;;;;;;;;;5014972;28;20504;-71
2022/02/05 02:38:34;;;;;;;13.45;1.95;;;;;;;;;;5012157;28;20038;-70
2022/02/05 02:41:09;;;;;;;14.00;2.03;;;;;;;;;;5014474;28;20056;-72
2022/02/05 02:43:37;;;;;;;13.40;2.75;;;;;;;;;;5014534;28;20045;-72
2022/02/05 02:46:05;;;;;;;13.80;1.98;;;;;;;;;;5014340;28;20046;-72
2022/02/05 02:48:33;;;;;;;7.40;1.90;;;;;;;;;;5014561;28;20121;-71
2022/02/05 02:56:50;;;;;;;13.75;2.10;;;;;;;;;;5014406;28;20041;-72
2022/02/05 02:59:34;;;;;;;18.58;2.78;;;;;;;;;;5014480;28;20042;-72
2022/02/05 03:02:11;;;;;;;11.95;2.03;;;;;;;;;;5014048;28;20126;-72
2022/02/05 03:04:40;;;;;;;9.70;1.70;;;;;;;;;;5013850;28;20158;-72
2022/02/05 03:07:07;;;;;;;10.18;1.88;;;;;;;;;;5013872;28;20429;-71
2022/02/05 03:09:36;;;;;;;9.88;1.92;;;;;;;;;;5014255;28;20041;-71
2022/02/05 03:12:03;;;;;;;12.70;1.98;;;;;;;;;;5014136;28;20038;-69
2022/02/05 03:14:31;;;;;;;14.60;1.70;;;;;;;;;;5013986;28;20117;-72
2022/02/05 03:17:05;;;;;;;11.50;2.03;;;;;;;;;;5013215;28;20556;-69
2022/02/05 03:19:34;;;;;;;13.98;2.20;;;;;;;;;;5011674;28;20490;-72
2022/02/05 03:22:02;;;;;;;9.38;1.60;;;;;;;;;;5011751;28;20034;-72
2022/02/05 03:24:30;;;;;;;11.18;2.20;;;;;;;;;;4994255;28;20045;-72
2022/02/05 03:26:57;;;;;;;16.67;3.90;;;;;;;;;;5011536;28;20581;-69
2022/02/05 03:29:25;;;;;;;18.17;2.67;;;;;;;;;;5011847;28;20756;-72
2022/02/05 03:31:53;;;;;;;6.97;1.83;;;;;;;;;;4994831;28;20045;-71
2022/02/05 03:34:21;;;;;;;8.80;2.22;;;;;;;;;;5013686;28;20508;-72
2022/02/05 03:36:49;;;;;;;15.25;2.75;;;;;;;;;;4979864;28;20417;-72
2022/02/05 03:39:16;;;;;;;9.15;1.80;;;;;;;;;;4996146;28;20436;-71
2022/02/05 03:41:44;;;;;;;12.98;2.40;;;;;;;;;;5013207;28;20041;-72
2022/02/05 03:44:11;;;;;;;15.55;2.55;;;;;;;;;;5013414;28;20038;-71
2022/02/05 03:46:39;;;;;;;15.05;2.40;;;;;;;;;;5013481;28;20050;-72
2022/02/05 03:49:07;;;;;;;9.38;2.55;;;;;;;;;;5013187;28;20417;-68
2022/02/05 03:51:34;;;;;;;12.02;2.40;;;;;;;;;;5013309;28;20034;-71
2022/02/05 03:54:02;;;;;;;10.32;2.38;;;;;;;;;;5012998;28;20046;-71
2022/02/05 03:56:29;;;;;;;6.25;2.17;;;;;;;;;;5013893;28;20038;-70
2022/02/05 03:58:57;;;;;;;9.82;2.47;;;;;;;;;;5013043;28;20045;-71
2022/02/05 04:01:24;;;;;;;8.10;2.88;;;;;;;;;;5013390;28;20042;-71
2022/02/05 04:03:51;;;;;;;12.82;3.78;;;;;;;;;;4992266;28;20053;-72
2022/02/05 04:06:19;;;;;;;9.90;3.17;;;;;;;;;;4993147;28;20038;-72
2022/02/05 04:08:51;;;;;;;8.45;2.78;;;;;;;;;;4993895;28;20042;-71
2022/02/05 04:16:51;;;;;;;7.22;2.13;;;;;;;;;;4993350;28;20038;-72
2022/02/05 04:19:19;;;;;;;9.68;2.10;;;;;;;;;;4993174;28;20065;-72
2022/02/05 04:21:47;;;;;;;11.18;1.75;;;;;;;;;;4993462;28;20453;-70
2022/02/05 04:24:14;;;;;;;9.68;1.67;;;;;;;;;;4993467;28;20520;-72
2022/02/05 04:26:42;;;;;;;12.18;2.58;;;;;;;;;;4993442;28;20043;-71
2022/02/05 04:29:11;;;;;;;10.32;1.83;;;;;;;;;;4991940;28;20042;-70
2022/02/05 04:31:41;;;;;;;8.27;2.10;;;;;;;;;;4990974;28;20046;-71
2022/02/05 04:34:09;;;;;;;8.07;2.10;;;;;;;;;;4994029;28;20045;-70
2022/02/05 04:36:37;;;;;;;9.70;2.60;;;;;;;;;;5012874;28;20033;-71
2022/02/05 04:39:10;;;;;;;12.63;1.80;;;;;;;;;;5013115;28;20038;-71
2022/02/05 04:41:47;;;;;;;17.02;1.80;;;;;;;;;;5012592;28;20050;-72
2022/02/05 04:52:19;;;;;;;12.52;1.95;;;;;;;;;;5012594;28;20038;-69
2022/02/05 04:57:43;;;;;;;5.78;1.95;;;;;;;;;;5013075;28;20042;-71
2022/02/05 05:00:22;;;;;;;8.32;2.00;;;;;;;;;;5012729;28;20045;-72
2022/02/05 05:03:15;;;;;;;8.88;1.65;;;;;;;;;;5015904;28;20034;-71
2022/02/05 05:21:40;;;;;;;22.95;2.45;;;;;;;;;;5015896;28;20045;-69
2022/02/05 05:24:08;;;;;;;5.05;1.70;;;;;;;;;;5016211;28;20057;-71
2022/02/05 05:26:37;;;;;;;9.50;2.60;;;;;;;;;;5016002;28;20045;-72
2022/02/05 05:29:05;;;;;;;8.40;2.65;;;;;;;;;;5015856;28;20077;-71
2022/02/05 05:31:33;;;;;;;14.90;3.25;;;;;;;;;;5015614;28;20038;-70
2022/02/05 05:34:00;;;;;;;7.78;2.60;;;;;;;;;;5016006;28;20430;-71
2022/02/05 05:36:29;;;;;;;6.43;2.13;;;;;;;;;;5015803;28;20048;-69
2022/02/05 05:39:01;;;;;;;9.43;2.20;;;;;;;;;;5015864;28;20489;-72
2022/02/05 05:41:29;;;;;;;7.82;2.08;;;;;;;;;;5015198;28;20042;-72
2022/02/05 05:46:52;;;;;;;5.60;1.67;;;;;;;;;;4985827;28;20125;-71
2022/02/05 05:49:34;;;;;;;11.65;2.70;;;;;;;;;;5015357;28;20101;-69
2022/02/05 05:52:01;;;;;;;7.85;2.38;;;;;;;;;;5015421;28;20039;-71
2022/02/05 05:54:29;;;;;;;6.82;2.08;;;;;;;;;;5015063;28;20041;-72
2022/02/05 05:56:56;;;;;;;7.35;2.00;;;;;;;;;;5015152;28;20042;-71
2022/02/05 05:59:24;;;;;;;7.35;2.50;;;;;;;;;;5015466;28;20034;-72
2022/02/05 06:01:51;;;;;;;11.32;2.83;;;;;;;;;;5015167;28;20489;-72
2022/02/05 06:04:19;;;;;;;7.20;2.50;;;;;;;;;;5023022;28;20061;-72
2022/02/05 06:06:46;;;;;;;11.63;2.20;;;;;;;;;;5034814;28;20416;-71
2022/02/05 06:09:14;;;;;;;11.88;3.50;;;;;;;;;;5025612;28;20037;-71
2022/02/05 06:11:42;;;;;;;11.32;3.20;;;;;;;;;;5034687;28;20049;-69
2022/02/05 06:14:09;;;;;;;8.90;2.85;;;;;;;;;;5034914;28;20034;-70
2022/02/05 06:16:37;;;;;;;15.13;3.67;;;;;;;;;;5034841;28;20059;-68
2022/02/05 06:19:04;;;;;;;8.98;3.50;;;;;;;;;;5016658;28;20168;-71
2022/02/05 06:21:32;;;;;;;9.38;3.17;;;;;;;;;;5034666;28;20041;-69
2022/02/05 06:24:00;;;;;;;12.45;3.63;;;;;;;;;;5034538;28;20044;-70
2022/02/05 06:26:27;;;;;;;11.23;3.50;;;;;;;;;;5034538;28;20495;-69
2022/02/05 06:28:55;;;;;;;10.60;3.17;;;;;;;;;;5034527;28;20048;-72
2022/02/05 06:31:22;;;;;;;11.02;3.20;;;;;;;;;;5033886;28;20044;-69
2022/02/05 06:33:50;;;;;;;10.68;3.65;;;;;;;;;;5034336;28;20033;-72
2022/02/05 06:36:17;;;;;;;9.07;3.72;;;;;;;;;;5034480;28;20502;-71
2022/02/05 06:38:45;;;;;;;12.07;3.90;;;;;;;;;;5034596;28;20052;-72
2022/02/05 06:41:12;;;;;;;15.48;5.05;;;;;;;;;;5034598;28;20444;-71
2022/02/05 06:43:39;;;;;;;14.10;5.47;;;;;;;;;;5033831;28;20052;-71
2022/02/05 06:46:07;;;;;;;16.40;4.43;;;;;;;;;;5034087;28;20045;-71
2022/02/05 06:48:40;;;;;;;11.00;5.53;;;;;;;;;;5034219;28;20448;-69
2022/02/05 06:51:07;;;;;;;13.15;3.72;;;;;;;;;;5033910;28;20053;-72
2022/02/05 06:53:35;;;;;;;6.07;3.13;;;;;;;;;;5033990;28;20411;-71
2022/02/05 06:56:02;;;;;;;14.23;3.55;;;;;;;;;;5033972;28;20033;-71
2022/02/05 06:58:30;;;;;;;10.88;3.33;;;;;;;;;;5033703;28;20037;-71
2022/02/05 07:00:57;;;;;;;14.40;3.60;;;;;;;;;;5034178;28;20041;-71
2022/02/05 07:03:25;;;;;;;14.23;3.85;;;;;;;;;;5033898;28;20106;-71
2022/02/05 07:05:52;;;;;;;10.57;3.65;;;;;;;;;;5033447;28;20057;-71
2022/02/05 07:08:20;;;;;;;16.30;4.30;;;;;;;;;;5034386;28;20396;-72
2022/02/05 07:10:51;;;;;;;10.65;5.00;;;;;;;;;;5033853;28;20046;-73
2022/02/05 07:13:21;;;;;;;12.40;5.40;;;;;;;;;;5033835;28;20038;-71
2022/02/05 07:16:02;;;;;;;14.95;5.18;;;;;;;;;;5032602;28;20042;-70
2022/02/05 07:18:56;;;;;;;15.90;6.40;;;;;;;;;;5026815;28;20118;-72
2022/02/05 07:21:38;;;;;;;13.65;6.18;;;;;;;;;;5032871;28;20045;-70
2022/02/05 07:29:19;;;;;;;13.43;5.82;;;;;;;;;;5053259;28;20045;-70
2022/02/05 07:31:48;;;;;;;13.20;5.72;;;;;;;;;;5053193;28;20049;-73
2022/02/05 07:34:17;;;;;;;9.35;5.82;;;;;;;;;;5053480;28;20053;-71
2022/02/05 07:36:44;;;;;;;11.43;5.53;;;;;;;;;;5053581;28;20040;-71
2022/02/05 07:39:12;;;;;;;12.48;5.15;;;;;;;;;;5053537;28;20377;-71
2022/02/05 07:41:41;;;;;;;16.15;5.25;;;;;;;;;;5034576;28;20061;-70
2022/02/05 07:44:12;;;;;;;15.00;5.70;;;;;;;;;;5033276;28;20049;-71
2022/02/05 07:46:46;;;;;;;14.20;5.80;;;;;;;;;;5032802;28;20128;-72
2022/02/05 07:49:14;;;;;;;14.30;5.03;;;;;;;;;;5033347;28;20469;-71
2022/02/05 07:51:43;;;;;;;11.88;4.88;;;;;;;;;;5014630;28;20092;-72
2022/02/05 07:54:11;;;;;;;11.60;4.50;;;;;;;;;;5027706;28;20037;-72
2022/02/05 07:56:44;;;;;;;14.25;4.47;;;;;;;;;;5031665;28;20045;-70
2022/02/05 07:59:12;;;;;;;8.88;4.20;;;;;;;;;;5033376;28;20116;-72
2022/02/05 08:01:40;;;;;;;16.90;4.72;;;;;;;;;;5028423;28;20048;-72
2022/02/05 08:04:10;;;;;;;19.45;6.68;;;;;;;;;;5032670;28;20505;-71
2022/02/05 08:06:37;;;;;;;20.23;6.28;;;;;;;;;;5015242;28;20124;-73
2022/02/05 08:09:14;;;;;;;10.82;5.90;;;;;;;;;;5022593;28;20100;-73
2022/02/05 08:11:47;;;;;;;13.90;5.78;;;;;;;;;;5012186;28;20460;-71
2022/02/05 08:14:18;;;;;;;12.25;5.07;;;;;;;;;;5029787;28;20067;-73
2022/02/05 08:16:50;;;;;;;14.02;7.50;;;;;;;;;;5031084;28;20049;-72
2022/02/05 08:19:18;;;;;;;16.38;8.75;;;;;;;;;;5031572;28;20052;-71
2022/02/05 08:22:05;;;;;;;20.67;8.77;;;;;;;;;;5033176;28;20045;-72
2022/02/05 08:24:37;;;;;;;15.52;4.30;;;;;;;;;;5031919;28;20112;-70
2022/02/05 08:27:04;;;;;;;11.23;4.78;;;;;;;;;;5032922;28;20041;-71
2022/02/05 08:29:34;;;;;;;8.10;3.40;;;;;;;;;;5031063;28;20060;-70
2022/02/05 08:32:02;;;;;;;8.35;3.70;;;;;;;;;;5032683;28;20037;-70
2022/02/05 08:34:29;;;;;;;9.70;3.40;;;;;;;;;;5032771;28;20504;-71
2022/02/05 08:36:58;;;;;;;10.63;2.90;;;;;;;;;;5034974;28;20041;-71
2022/02/05 08:39:27;;;;;;;11.07;3.60;;;;;;;;;;5035419;28;20473;-71
2022/02/05 08:41:54;;;;;;;6.07;2.80;;;;;;;;;;5036305;28;20048;-70
2022/02/05 08:44:21;;;;;;;7.78;3.90;;;;;;;;;;5036224;28;20051;-71
2022/02/05 08:46:49;;;;;;;15.20;4.88;;;;;;;;;;5036693;28;20064;-71
2022/02/05 08:49:17;;;;;;;9.90;3.05;;;;;;;;;;5035244;28;20047;-71
2022/02/05 08:51:46;;;;;;;7.47;3.30;;;;;;;;;;5036581;28;20053;-70
2022/02/05 08:54:14;;;;;;;10.27;2.80;;;;;;;;;;5036132;28;20052;-72
2022/02/05 08:56:41;;;;;;;7.28;2.95;;;;;;;;;;5036638;28;20037;-71
2022/02/05 08:59:09;;;;;;;8.30;3.20;;;;;;;;;;5036647;28;20103;-72
2022/02/05 09:01:46;;;;;;;8.75;3.10;;;;;;;;;;5036597;28;20040;-70
2022/02/05 09:04:45;;;;;;;7.25;3.17;;;;;;;;;;5036106;28;20053;-72
2022/02/05 09:07:13;;;;;;;12.35;3.40;;;;;;;;;;5035885;28;20041;-72
2022/02/05 09:12:31;;;;;;;14.43;4.18;;;;;;;;;;5036118;28;20045;-71
2022/02/05 09:14:59;;;;;;;8.52;3.40;;;;;;;;;;5036550;28;20117;-72
2022/02/05 09:17:27;;;;;;;8.05;3.38;;;;;;;;;;5036040;28;20037;-70
2022/02/05 09:19:54;;;;;;;13.00;3.80;;;;;;;;;;5035671;28;20042;-70
2022/02/05 09:22:22;;;;;;;11.30;3.25;;;;;;;;;;5035716;28;20048;-72
2022/02/05 09:24:49;;;;;;;18.73;3.85;;;;;;;;;;5035577;28;20037;-70
2022/02/05 09:27:18;;;;;;;10.55;3.97;;;;;;;;;;5035542;28;20041;-70
2022/02/05 09:29:59;;;;;;;9.82;4.80;;;;;;;;;;5035742;28;20045;-71
2022/02/05 09:32:27;;;;;;;11.45;4.72;;;;;;;;;;5035701;28;20037;-71
2022/02/05 09:34:55;;;;;;;14.43;4.75;;;;;;;;;;5031873;28;20056;-71
2022/02/05 09:37:23;;;;;;;11.38;4.03;;;;;;;;;;5035903;28;20041;-72
2022/02/05 09:39:51;;;;;;;11.68;3.50;;;;;;;;;;5035678;28;20042;-71
2022/02/05 09:42:18;;;;;;;14.32;3.88;;;;;;;;;;5035058;28;20041;-70
2022/02/05 09:44:46;;;;;;;13.55;3.80;;;;;;;;;;5035283;28;20120;-69
2022/02/05 09:47:13;;;;;;;13.35;3.33;;;;;;;;;;5034619;28;20038;-72
2022/02/05 09:49:43;;;;;;;9.35;3.38;;;;;;;;;;5035311;28;20037;-72
2022/02/05 09:52:13;;;;;;;11.07;2.38;;;;;;;;;;5035301;28;20047;-71
2022/02/05 09:54:43;;;;;;;9.93;3.60;;;;;;;;;;5034473;28;20069;-71
2022/02/05 09:57:11;;;;;;;8.32;2.72;;;;;;;;;;5033431;28;20049;-70
2022/02/05 09:59:39;;;;;;;11.73;2.75;;;;;;;;;;5035310;28;20041;-71
2022/02/05 10:02:25;;;;;;;11.50;3.10;;;;;;;;;;5035209;28;20048;-71
2022/02/05 10:04:53;;;;;;;14.63;3.08;;;;;;;;;;5130646;23;20076;-72
2022/02/05 10:07:55;;;;;;;10.18;3.17;;;;;;;;;;5054575;28;20037;-72
2022/02/05 10:10:23;;;;;;;9.13;3.05;;;;;;;;;;5054551;28;20048;-71
2022/02/05 10:13:10;;;;;;;9.60;2.80;;;;;;;;;;5054686;28;20046;-72
2022/02/05 10:15:39;;;;;;;6.65;2.63;;;;;;;;;;5053196;28;20040;-70
2022/02/05 10:18:09;;;;;;;8.80;2.33;;;;;;;;;;5053982;28;20049;-71
2022/02/05 10:20:40;;;;;;;12.95;3.65;;;;;;;;;;5054487;28;20040;-72
2022/02/05 10:23:09;;;;;;;4.83;2.40;;;;;;;;;;5054100;28;20049;-71
2022/02/05 10:25:37;;;;;;;8.55;2.70;;;;;;;;;;5053125;28;20416;-71
2022/02/05 10:28:11;;;;;;;6.95;2.75;;;;;;;;;;5054334;28;20036;-71
2022/02/05 10:30:45;;;;;;;7.47;2.85;;;;;;;;;;5054098;28;20435;-72
2022/02/05 10:33:25;;;;;;;10.82;3.00;;;;;;;;;;5053857;28;20472;-71
2022/02/05 10:36:24;;;;;;;13.52;2.88;;;;;;;;;;5054362;28;20052;-71
2022/02/05 10:39:53;;;;;;;10.82;3.15;;;;;;;;;;5031908;28;20053;-71
2022/02/05 10:44:37;;;;;;;9.43;2.42;;;;;;;;;;5032295;28;20049;-72
2022/02/05 10:47:07;;;;;;;6.63;2.38;;;;;;;;;;5032151;28;20132;-70
2022/02/05 10:49:45;;;;;;;13.18;2.90;;;;;;;;;;5032128;28;20558;-70
2022/02/05 10:52:25;;;;;;;9.20;2.60;;;;;;;;;;5031983;28;20060;-73
2022/02/05 10:55:03;;;;;;;6.90;2.42;;;;;;;;;;5031591;28;20060;-72
2022/02/05 10:57:53;;;;;;;12.43;2.70;;;;;;;;;;5031807;28;20128;-71
2022/02/05 11:08:06;;;;;;;7.65;2.42;;;;;;;;;;5031235;28;20068;-71
2022/02/05 11:16:41;;;;;;;12.80;2.85;;;;;;;;;;5053211;28;20048;-71
2022/02/05 11:19:04;;;;;;;18.50;4.97;;;;;;;;;;5053376;28;20052;-70
2022/02/05 11:21:49;;;;;;;12.57;3.15;;;;;;;;;;5053175;28;20103;-71
2022/02/05 11:24:16;;;;;;;13.32;2.92;;;;;;;;;;5051881;28;20100;-72
2022/02/05 11:26:44;;;;;;;17.42;3.95;;;;;;;;;;5052993;28;20051;-71
2022/02/05 11:29:28;;;;;;;8.85;3.53;;;;;;;;;;5053123;28;20072;-72
2022/02/05 11:32:15;;;;;;;12.23;2.70;;;;;;;;;;5053030;28;20140;-71
2022/02/05 11:34:49;;;;;;;9.35;2.83;;;;;;;;;;5053076;28;20625;-70
2022/02/05 11:37:17;;;;;;;14.05;3.17;;;;;;;;;;5053144;28;20045;-70
2022/02/05 11:39:44;;;;;;;11.88;2.50;;;;;;;;;;5053217;28;20067;-70
2022/02/05 11:42:29;;;;;;;12.32;2.75;;;;;;;;;;5052781;28;20075;-70
2022/02/05 11:44:58;;;;;;;16.80;2.90;;;;;;;;;;5051552;28;20033;-71
2022/02/05 11:47:27;;;;;;;7.95;2.67;;;;;;;;;;5052745;28;20053;-72
2022/02/05 11:49:57;;;;;;;13.57;2.42;;;;;;;;;;5052746;28;20064;-72
2022/02/05 11:52:42;;;;;;;11.30;2.53;;;;;;;;;;5052819;28;20052;-70
2022/02/05 11:55:10;;;;;;;7.35;2.05;;;;;;;;;;5052600;28;20067;-72
2022/02/05 11:57:44;;;;;;;9.43;2.53;;;;;;;;;;5052801;28;20353;-73
2022/02/05 12:00:12;;;;;;;10.15;2.53;;;;;;;;;;5052699;28;20091;-72
2022/02/05 12:02:47;;;;;;;11.60;2.67;;;;;;;;;;5051346;28;20033;-72
2022/02/05 12:05:18;;;;;;;11.77;2.60;;;;;;;;;;5052660;28;20049;-70
2022/02/05 12:08:03;;;;;;;15.30;3.13;;;;;;;;;;5052406;28;20047;-72
2022/02/05 12:10:35;;;;;;;10.63;2.80;;;;;;;;;;5052395;28;20515;-72
2022/02/05 12:13:24;;;;;;;17.05;2.95;;;;;;;;;;5052689;28;20045;-70
2022/02/05 12:16:00;;;;;;;10.23;2.38;;;;;;;;;;5052710;28;20045;-72
2022/02/05 12:18:30;;;;;;;8.77;2.42;;;;;;;;;;5051138;28;20037;-70
2022/02/05 12:26:19;;;;;;;11.50;2.35;;;;;;;;;;5052350;28;20123;-70
2022/02/05 12:28:56;;;;;;;11.32;2.80;;;;;;;;;;5047740;28;20037;-69
2022/02/05 12:31:34;;;;;;;8.40;2.28;;;;;;;;;;5037298;28;20131;-71
2022/02/05 12:34:11;;;;;;;14.35;3.35;;;;;;;;;;5052551;28;20076;-72
2022/02/05 12:36:42;;;;;;;14.35;2.55;;;;;;;;;;5052445;28;20120;-71
2022/02/05 12:39:14;;;;;;;8.07;2.38;;;;;;;;;;5052460;28;20049;-72
2022/02/05 12:41:48;;;;;;;5.45;2.38;;;;;;;;;;5051576;28;20048;-71
2022/02/05 12:44:19;;;;;;;10.65;2.70;;;;;;;;;;5052095;28;20496;-71
2022/02/05 12:47:00;;;;;;;12.30;2.80;;;;;;;;;;5047204;28;20063;-70
2022/02/05 12:49:46;;;;;;;8.38;3.28;;;;;;;;;;5046121;28;20045;-69
2022/02/05 12:52:14;;;;;;;11.93;2.85;;;;;;;;;;5044043;28;20488;-71
2022/02/05 12:54:46;;;;;;;12.10;2.80;;;;;;;;;;5051736;28;20040;-71
2022/02/05 12:57:18;;;;;;;8.75;2.92;;;;;;;;;;5052022;28;20048;-70
2022/02/05 12:59:45;;;;;;;8.80;2.47;;;;;;;;;;5052358;28;20045;-71
2022/02/05 13:02:14;;;;;;;12.52;2.90;;;;;;;;;;5052245;28;20064;-71
2022/02/05 13:04:53;;;;;;;17.88;3.10;;;;;;;;;;5052094;28;20053;-71
2022/02/05 13:07:25;;;;;;;9.27;2.92;;;;;;;;;;5048176;28;20543;-71
2022/02/05 13:09:59;;;;;;;8.00;3.00;;;;;;;;;;5032926;28;20393;-70
2022/02/05 13:12:45;;;;;;;9.77;3.15;;;;;;;;;;5030969;28;20045;-69
2022/02/05 13:36:39;;;;;;;9.55;2.58;;;;;;;;;;5010190;28;20089;-69
2022/02/05 13:42:05;;;;;;;8.55;2.80;;;;;;;;;;5049048;28;20096;-71
2022/02/05 13:47:34;;;;;;;11.93;3.22;;;;;;;;;;5054851;28;20849;-71
2022/02/05 13:50:36;;;;;;;7.45;2.60;;;;;;;;;;5051638;28;20041;-70
2022/02/05 13:53:11;;;;;;;13.65;3.10;;;;;;;;;;5021422;28;20518;-69
2022/02/05 13:55:44;;;;;;;10.63;2.85;;;;;;;;;;5053920;28;20462;-72
2022/02/05 13:58:11;;;;;;;;;;;;;;;;;;5055545;28;20029;-73
2022/02/05 14:00:43;;;;;;;6.13;2.30;;;;;;;;;;5054566;28;19943;-67
2022/02/05 14:03:12;;;;;;;7.68;2.85;;;;;;;;;;5055046;28;20500;-68
2022/02/05 14:05:44;;;;;;;10.00;2.80;;;;;;;;;;5051168;28;20041;-70
2022/02/05 14:08:24;;;;;;;10.52;2.80;;;;;;;;;;5045318;28;20057;-70
2022/02/05 14:10:55;;;;;;;12.52;2.97;;;;;;;;;;5043918;28;20041;-72
2022/02/05 14:13:23;;;;;;;9.23;2.80;;;;;;;;;;5046625;28;20057;-71
2022/02/05 14:15:54;;;;;;;12.20;2.80;;;;;;;;;;5054567;28;20400;-70
2022/02/05 14:18:23;;;;;;;11.50;2.70;;;;;;;;;;5054570;28;20043;-72
2022/02/05 14:20:55;;;;;;;16.98;3.95;;;;;;;;;;5054237;28;20427;-70
2022/02/05 14:23:27;;;;;;;14.18;3.20;;;;;;;;;;5054779;28;20073;-71
2022/02/05 14:26:07;;;;;;;10.63;2.97;;;;;;;;;;5054525;28;20087;-71
2022/02/05 14:28:42;;;;;;;14.20;2.88;;;;;;;;;;5054532;28;20045;-71
2022/02/05 14:31:22;;;;;;;12.73;3.30;;;;;;;;;;5053748;28;20045;-70
2022/02/05 14:41:51;;;;;;;11.20;3.05;;;;;;;;;;5053822;28;20072;-72
2022/02/05 14:44:19;;;;;;;10.23;3.20;;;;;;;;;;5053716;28;20041;-71
2022/02/05 14:46:46;;;;;;;12.13;3.33;;;;;;;;;;5053749;28;20117;-69
2022/02/05 14:49:14;;;;;;;9.10;3.10;;;;;;;;;;5053457;28;20037;-72
2022/02/05 14:51:42;;;;;;;11.80;3.28;;;;;;;;;;5035881;28;20044;-70
2022/02/05 14:54:10;;;;;;;11.38;2.60;;;;;;;;;;5053274;28;20377;-70
2022/02/05 14:56:42;;;;;;;16.92;3.50;;;;;;;;;;5023011;28;20037;-72
2022/02/05 14:59:10;;;;;;;13.27;3.38;;;;;;;;;;5036316;28;20030;-69
2022/02/05 15:01:38;;;;;;;14.13;3.50;;;;;;;;;;5033509;28;20054;-71
2022/02/05 15:04:05;;;;;;;12.55;2.90;;;;;;;;;;5035789;28;20067;-71
2022/02/05 15:06:35;;;;;;;18.90;5.65;;;;;;;;;;5033155;28;21473;-70
2022/02/05 15:09:06;;;;;;;12.43;3.28;;;;;;;;;;5048965;28;20532;-67
2022/02/05 15:11:34;;;;;;;10.35;3.13;;;;;;;;;;5052884;28;20049;-71
2022/02/05 15:14:02;;;;;;;15.27;3.85;;;;;;;;;;5053155;28;20384;-67
2022/02/05 15:16:32;;;;;;;14.30;3.58;;;;;;;;;;5052892;28;20066;-67
2022/02/05 15:19:02;;;;;;;18.42;3.80;;;;;;;;;;5052860;28;20079;-70
2022/02/05 15:21:31;;;;;;;11.48;3.88;;;;;;;;;;5052773;28;20040;-69
2022/02/05 15:24:00;;;;;;;12.13;3.92;;;;;;;;;;5052457;28;20092;-69
2022/02/05 15:26:31;;;;;;;12.27;3.90;;;;;;;;;;5052003;28;20037;-70
2022/02/05 15:29:01;;;;;;;16.35;4.15;;;;;;;;;;5035564;28;20079;-71
2022/02/05 15:31:30;;;;;;;17.08;5.43;;;;;;;;;;5051346;28;20080;-69
2022/02/05 15:33:58;;;;;;;14.13;4.78;;;;;;;;;;5051736;28;20510;-70
2022/02/05 15:36:32;;;;;;;20.80;7.20;;;;;;;;;;5052037;28;20037;-72
2022/02/05 15:44:34;;;;;;;15.88;7.43;;;;;;;;;;5022929;28;20045;-72
2022/02/05 15:47:01;;;;;;;15.75;6.63;;;;;;;;;;5049836;28;20041;-72
2022/02/05 15:49:29;;;;;;;10.70;4.25;;;;;;;;;;5053045;28;20407;-70
2022/02/05 15:52:00;;;;;;;14.18;3.80;;;;;;;;;;5049299;28;20068;-72
2022/02/05 15:54:30;;;;;;;13.73;4.43;;;;;;;;;;5052273;28;20037;-69
2022/02/05 16:00:23;;;;;;;19.77;4.22;;;;;;;;;;5052235;28;20104;-70
2022/02/05 16:02:15;;;;;;;23.05;4.30;;;;;;;;;;5018819;28;20415;-70
2022/02/05 16:04:43;;;;;;;20.05;4.35;;;;;;;;;;5051923;28;20048;-71
2022/02/05 16:07:11;;;;;;;14.73;4.25;;;;;;;;;;5050560;28;20488;-71
2022/02/05 16:09:43;;;;;;;19.52;4.75;;;;;;;;;;5052406;28;20098;-71
2022/02/05 16:12:14;;;;;;;16.48;5.05;;;;;;;;;;5050768;28;20124;-70
2022/02/05 16:14:41;;;;;;;22.70;5.53;;;;;;;;;;5052719;28;20040;-71
2022/02/05 16:17:08;;;;;;;22.60;5.47;;;;;;;;;;5050631;28;20040;-70
2022/02/05 16:19:38;;;;;;;19.75;4.45;;;;;;;;;;5050895;28;20371;-70
2022/02/05 16:22:05;;;;;;;18.40;4.50;;;;;;;;;;5050137;28;20037;-70
2022/02/05 16:24:33;;;;;;;17.17;5.07;;;;;;;;;;5034247;28;20140;-70
2022/02/05 16:27:00;;;;;;;20.58;5.00;;;;;;;;;;5049933;28;20136;-70
2022/02/05 16:29:28;;;;;;;15.70;4.55;;;;;;;;;;5052036;28;20116;-70
2022/02/05 16:31:58;;;;;;;22.67;5.93;;;;;;;;;;5046791;28;20524;-70
2022/02/05 16:34:29;;;;;;;28.33;5.82;;;;;;;;;;5052019;28;20064;-71
2022/02/05 16:36:59;;;;;;;21.55;5.72;;;;;;;;;;5052123;28;20102;-71
2022/02/05 16:39:28;;;;;;;18.38;6.05;;;;;;;;;;5052399;28;20033;-72
2022/02/05 16:41:55;;;;;;;25.08;5.90;;;;;;;;;;5051889;28;20044;-72
2022/02/05 16:44:23;;;;;;;23.17;7.63;;;;;;;;;;5049178;28;20041;-69
2022/02/05 16:46:53;;;;;;;20.88;6.65;;;;;;;;;;5052025;28;20416;-71
2022/02/05 16:49:23;;;;;;;25.55;6.78;;;;;;;;;;5051272;28;20480;-69
2022/02/05 16:51:52;;;;;;;26.17;6.82;;;;;;;;;;5051629;28;20132;-70
2022/02/05 16:54:20;;;;;;;22.85;5.93;;;;;;;;;;5051568;28;20033;-70
2022/02/05 16:56:48;;;;;;;17.98;6.18;;;;;;;;;;5034534;28;20048;-70
2022/02/05 16:59:17;;;;;;;20.98;5.88;;;;;;;;;;5055687;28;20044;-71
2022/02/05 17:01:51;;;;;;;22.45;5.40;;;;;;;;;;5022272;28;20463;-69
2022/02/05 17:04:18;;;;;;;15.00;4.82;;;;;;;;;;5055751;28;20067;-69
2022/02/05 17:06:48;;;;;;;28.85;6.00;;;;;;;;;;5053348;28;20451;-71
2022/02/05 17:09:16;;;;;;;24.88;5.50;;;;;;;;;;5055771;28;20049;-71
2022/02/05 17:11:43;;;;;;;27.77;5.82;;;;;;;;;;5055530;28;20091;-69
2022/02/05 17:14:12;;;;;;;20.08;5.90;;;;;;;;;;5028618;28;20038;-69
2022/02/05 17:16:40;;;;;;;23.38;6.20;;;;;;;;;;5035332;28;20515;-71
2022/02/05 17:19:09;;;;;;;17.77;5.28;;;;;;;;;;5018042;28;20489;-72
2022/02/05 17:21:37;;;;;;;16.42;5.82;;;;;;;;;;5035244;28;20043;-70
2022/02/05 17:24:04;;;;;;;24.38;5.43;;;;;;;;;;5035727;28;20045;-72
2022/02/05 17:26:35;;;;;;;26.85;5.68;;;;;;;;;;5036121;28;20133;-70
2022/02/05 17:29:04;;;;;;;18.70;5.43;;;;;;;;;;5035770;28;20060;-72
2022/02/05 17:31:32;;;;;;;20.90;5.40;;;;;;;;;;5035850;28;20041;-70
2022/02/05 17:34:00;;;;;;;25.35;5.63;;;;;;;;;;5036097;28;20046;-69
2022/02/05 17:36:27;;;;;;;29.88;6.35;;;;;;;;;;5036267;28;20076;-69
2022/02/05 17:39:02;;;;;;;18.10;4.85;;;;;;;;;;5035585;28;20045;-71
2022/02/05 17:41:29;;;;;;;16.20;4.88;;;;;;;;;;5035426;28;20034;-71
2022/02/05 17:43:56;;;;;;;25.58;5.68;;;;;;;;;;5046579;28;20037;-68
2022/02/05 17:46:26;;;;;;;16.50;5.40;;;;;;;;;;5055487;28;20091;-72
2022/02/05 17:48:54;;;;;;;24.25;5.57;;;;;;;;;;5028392;28;20173;-68
2022/02/05 17:51:22;;;;;;;18.10;4.88;;;;;;;;;;5035408;28;20045;-72
2022/02/05 17:53:49;;;;;;;23.45;5.40;;;;;;;;;;5037755;28;20049;-68
2022/02/05 17:56:17;;;;;;;24.25;5.50;;;;;;;;;;5027093;28;20132;-71
2022/02/05 17:58:44;;;;;;;17.10;5.50;;;;;;;;;;5044800;28;20076;-73
2022/02/05 18:01:12;;;;;;;13.88;5.32;;;;;;;;;;5041782;28;20034;-70
2022/02/05 18:03:41;;;;;;;20.55;5.65;;;;;;;;;;5034140;28;20060;-70
2022/02/05 18:06:15;;;;;;;16.52;5.43;;;;;;;;;;5041491;28;20037;-70
2022/02/05 18:11:30;;;;;;;19.73;6.10;;;;;;;;;;5054544;28;19979;-72
2022/02/05 18:14:22;;;;;;;19.70;5.90;;;;;;;;;;5053415;28;20045;-72
2022/02/05 18:16:49;;;;;;;17.52;5.60;;;;;;;;;;5051918;28;20041;-72